sensor_id;sensor_type;location;lat;lon;timestamp;P1;durP1;ratioP1;P2;durP2;ratioP2
25913;SDS011;13718;50.922;5.346;2022-08-24T00:02:08;5.65;;;2.70;;
25913;SDS011;13718;50.922;5.346;2022-08-24T00:04:33;4.00;;;2.50;;
25913;SDS011;13718;50.922;5.346;2022-08-24T00:06:59;10.13;;;2.80;;
25913;SDS011;13718;50.922;5.346;2022-08-24T00:09:26;5.25;;;2.53;;
25913;SDS011;13718;50.922;5.346;2022-08-24T00:11:52;5.70;;;2.45;;
25913;SDS011;13718;50.922;5.346;2022-08-24T00:14:18;3.83;;;2.50;;
25913;SDS011;13718;50.922;5.346;2022-08-24T00:16:44;6.20;;;2.75;;
25913;SDS011;13718;50.922;5.346;2022-08-24T00:19:10;3.95;;;2.70;;
25913;SDS011;13718;50.922;5.346;2022-08-24T00:21:36;4.07;;;2.60;;
25913;SDS011;13718;50.922;5.346;2022-08-24T00:24:01;6.10;;;2.85;;
25913;SDS011;13718;50.922;5.346;2022-08-24T00:26:27;7.30;;;2.70;;
25913;SDS011;13718;50.922;5.346;2022-08-24T00:28:53;6.10;;;2.60;;
25913;SDS011;13718;50.922;5.346;2022-08-24T00:31:19;5.38;;;2.70;;
25913;SDS011;13718;50.922;5.346;2022-08-24T00:33:45;5.65;;;2.90;;
25913;SDS011;13718;50.922;5.346;2022-08-24T00:36:10;4.85;;;2.90;;
25913;SDS011;13718;50.922;5.346;2022-08-24T00:38:36;4.57;;;2.78;;
25913;SDS011;13718;50.922;5.346;2022-08-24T00:41:02;6.78;;;3.00;;
25913;SDS011;13718;50.922;5.346;2022-08-24T00:43:28;3.72;;;2.85;;
25913;SDS011;13718;50.922;5.346;2022-08-24T00:46:04;5.85;;;2.78;;
25913;SDS011;13718;50.922;5.346;2022-08-24T00:48:41;5.53;;;2.70;;
25913;SDS011;13718;50.922;5.346;2022-08-24T00:51:21;8.00;;;3.45;;
25913;SDS011;13718;50.922;5.346;2022-08-24T00:53:53;4.88;;;2.88;;
25913;SDS011;13718;50.922;5.346;2022-08-24T00:56:33;5.13;;;3.00;;
25913;SDS011;13718;50.922;5.346;2022-08-24T00:59:10;4.90;;;3.15;;
25913;SDS011;13718;50.922;5.346;2022-08-24T01:01:38;5.13;;;2.58;;
25913;SDS011;13718;50.922;5.346;2022-08-24T01:04:04;5.03;;;2.67;;
25913;SDS011;13718;50.922;5.346;2022-08-24T01:06:34;6.85;;;2.70;;
25913;SDS011;13718;50.922;5.346;2022-08-24T01:09:00;4.45;;;2.80;;
25913;SDS011;13718;50.922;5.346;2022-08-24T01:11:26;4.13;;;2.60;;
25913;SDS011;13718;50.922;5.346;2022-08-24T01:13:54;5.10;;;2.90;;
25913;SDS011;13718;50.922;5.346;2022-08-24T01:16:21;10.57;;;3.00;;
25913;SDS011;13718;50.922;5.346;2022-08-24T01:19:13;6.32;;;3.20;;
25913;SDS011;13718;50.922;5.346;2022-08-24T01:22:11;6.38;;;3.38;;
25913;SDS011;13718;50.922;5.346;2022-08-24T01:24:39;4.63;;;2.72;;
25913;SDS011;13718;50.922;5.346;2022-08-24T01:27:07;7.75;;;3.13;;
25913;SDS011;13718;50.922;5.346;2022-08-24T01:29:34;6.28;;;3.05;;
25913;SDS011;13718;50.922;5.346;2022-08-24T01:32:02;6.90;;;2.88;;
25913;SDS011;13718;50.922;5.346;2022-08-24T01:34:29;7.07;;;3.15;;
25913;SDS011;13718;50.922;5.346;2022-08-24T01:36:55;6.63;;;2.92;;
25913;SDS011;13718;50.922;5.346;2022-08-24T01:39:25;6.85;;;3.40;;
25913;SDS011;13718;50.922;5.346;2022-08-24T01:41:58;4.35;;;2.92;;
25913;SDS011;13718;50.922;5.346;2022-08-24T01:44:25;5.72;;;3.47;;
25913;SDS011;13718;50.922;5.346;2022-08-24T01:46:54;5.18;;;3.72;;
25913;SDS011;13718;50.922;5.346;2022-08-24T01:49:21;8.10;;;3.65;;
25913;SDS011;13718;50.922;5.346;2022-08-24T01:51:49;8.68;;;3.97;;
25913;SDS011;13718;50.922;5.346;2022-08-24T01:54:14;6.45;;;4.05;;
25913;SDS011;13718;50.922;5.346;2022-08-24T01:56:40;6.22;;;3.90;;
25913;SDS011;13718;50.922;5.346;2022-08-24T01:59:06;5.78;;;3.90;;
25913;SDS011;13718;50.922;5.346;2022-08-24T02:01:33;7.18;;;4.35;;
25913;SDS011;13718;50.922;5.346;2022-08-24T02:04:03;7.10;;;4.00;;
25913;SDS011;13718;50.922;5.346;2022-08-24T02:06:30;6.95;;;3.80;;
25913;SDS011;13718;50.922;5.346;2022-08-24T02:08:57;5.38;;;3.58;;
25913;SDS011;13718;50.922;5.346;2022-08-24T02:11:22;5.63;;;3.65;;
25913;SDS011;13718;50.922;5.346;2022-08-24T02:13:48;6.70;;;4.00;;
25913;SDS011;13718;50.922;5.346;2022-08-24T02:16:14;10.13;;;4.47;;
25913;SDS011;13718;50.922;5.346;2022-08-24T02:18:40;7.82;;;4.03;;
25913;SDS011;13718;50.922;5.346;2022-08-24T02:21:07;6.78;;;4.10;;
25913;SDS011;13718;50.922;5.346;2022-08-24T02:23:34;8.02;;;4.57;;
25913;SDS011;13718;50.922;5.346;2022-08-24T02:26:01;8.40;;;5.10;;
25913;SDS011;13718;50.922;5.346;2022-08-24T02:28:28;5.97;;;4.13;;
25913;SDS011;13718;50.922;5.346;2022-08-24T02:30:54;8.23;;;4.30;;
25913;SDS011;13718;50.922;5.346;2022-08-24T02:33:20;19.48;;;6.63;;
25913;SDS011;13718;50.922;5.346;2022-08-24T02:35:47;14.77;;;5.28;;
25913;SDS011;13718;50.922;5.346;2022-08-24T02:38:13;12.02;;;4.50;;
25913;SDS011;13718;50.922;5.346;2022-08-24T02:40:39;11.80;;;4.85;;
25913;SDS011;13718;50.922;5.346;2022-08-24T02:43:05;10.57;;;5.00;;
25913;SDS011;13718;50.922;5.346;2022-08-24T02:45:30;8.07;;;4.78;;
25913;SDS011;13718;50.922;5.346;2022-08-24T02:47:57;6.63;;;3.53;;
25913;SDS011;13718;50.922;5.346;2022-08-24T02:50:23;10.88;;;4.22;;
25913;SDS011;13718;50.922;5.346;2022-08-24T02:52:50;11.85;;;5.05;;
25913;SDS011;13718;50.922;5.346;2022-08-24T02:55:17;6.68;;;4.18;;
25913;SDS011;13718;50.922;5.346;2022-08-24T02:57:43;8.07;;;4.30;;
25913;SDS011;13718;50.922;5.346;2022-08-24T03:00:11;8.02;;;4.50;;
25913;SDS011;13718;50.922;5.346;2022-08-24T03:02:38;8.07;;;4.15;;
25913;SDS011;13718;50.922;5.346;2022-08-24T03:05:04;7.15;;;4.40;;
25913;SDS011;13718;50.922;5.346;2022-08-24T03:07:30;6.15;;;4.45;;
25913;SDS011;13718;50.922;5.346;2022-08-24T03:09:56;9.45;;;4.00;;
25913;SDS011;13718;50.922;5.346;2022-08-24T03:12:22;7.88;;;4.25;;
25913;SDS011;13718;50.922;5.346;2022-08-24T03:14:47;7.18;;;3.80;;
25913;SDS011;13718;50.922;5.346;2022-08-24T03:17:13;7.15;;;4.22;;
25913;SDS011;13718;50.922;5.346;2022-08-24T03:19:38;7.28;;;4.32;;
25913;SDS011;13718;50.922;5.346;2022-08-24T03:22:04;7.60;;;4.40;;
25913;SDS011;13718;50.922;5.346;2022-08-24T03:24:30;9.65;;;4.25;;
25913;SDS011;13718;50.922;5.346;2022-08-24T03:26:56;7.57;;;3.70;;
25913;SDS011;13718;50.922;5.346;2022-08-24T03:29:22;5.63;;;3.92;;
25913;SDS011;13718;50.922;5.346;2022-08-24T03:31:48;8.90;;;4.10;;
25913;SDS011;13718;50.922;5.346;2022-08-24T03:34:14;6.18;;;4.35;;
25913;SDS011;13718;50.922;5.346;2022-08-24T03:36:40;10.57;;;4.85;;
25913;SDS011;13718;50.922;5.346;2022-08-24T03:39:10;8.52;;;4.70;;
25913;SDS011;13718;50.922;5.346;2022-08-24T03:41:36;7.60;;;4.93;;
25913;SDS011;13718;50.922;5.346;2022-08-24T03:44:02;7.80;;;4.57;;
25913;SDS011;13718;50.922;5.346;2022-08-24T03:46:28;8.38;;;4.55;;
25913;SDS011;13718;50.922;5.346;2022-08-24T03:48:59;10.43;;;5.35;;
25913;SDS011;13718;50.922;5.346;2022-08-24T03:51:26;7.88;;;5.28;;
25913;SDS011;13718;50.922;5.346;2022-08-24T03:53:53;9.05;;;5.05;;
25913;SDS011;13718;50.922;5.346;2022-08-24T03:56:19;10.35;;;5.00;;
25913;SDS011;13718;50.922;5.346;2022-08-24T03:58:45;11.15;;;5.13;;
25913;SDS011;13718;50.922;5.346;2022-08-24T04:01:12;10.55;;;5.47;;
25913;SDS011;13718;50.922;5.346;2022-08-24T04:03:40;12.73;;;7.78;;
25913;SDS011;13718;50.922;5.346;2022-08-24T04:06:07;10.23;;;6.60;;
25913;SDS011;13718;50.922;5.346;2022-08-24T04:08:34;11.50;;;5.85;;
25913;SDS011;13718;50.922;5.346;2022-08-24T04:11:00;11.02;;;6.18;;
25913;SDS011;13718;50.922;5.346;2022-08-24T04:13:27;11.32;;;6.18;;
25913;SDS011;13718;50.922;5.346;2022-08-24T04:16:05;9.27;;;6.30;;
25913;SDS011;13718;50.922;5.346;2022-08-24T04:18:32;10.43;;;6.82;;
25913;SDS011;13718;50.922;5.346;2022-08-24T04:20:59;11.48;;;6.60;;
25913;SDS011;13718;50.922;5.346;2022-08-24T04:23:25;11.68;;;6.65;;
25913;SDS011;13718;50.922;5.346;2022-08-24T04:25:50;14.50;;;6.53;;
25913;SDS011;13718;50.922;5.346;2022-08-24T04:28:17;9.73;;;6.63;;
25913;SDS011;13718;50.922;5.346;2022-08-24T04:30:45;8.80;;;6.35;;
25913;SDS011;13718;50.922;5.346;2022-08-24T04:33:17;11.63;;;7.28;;
25913;SDS011;13718;50.922;5.346;2022-08-24T04:35:44;12.00;;;7.22;;
25913;SDS011;13718;50.922;5.346;2022-08-24T04:38:12;15.40;;;7.20;;
25913;SDS011;13718;50.922;5.346;2022-08-24T04:40:42;10.60;;;7.18;;
25913;SDS011;13718;50.922;5.346;2022-08-24T04:43:09;14.20;;;7.25;;
25913;SDS011;13718;50.922;5.346;2022-08-24T04:45:37;13.38;;;7.40;;
25913;SDS011;13718;50.922;5.346;2022-08-24T04:48:04;12.65;;;7.05;;
25913;SDS011;13718;50.922;5.346;2022-08-24T04:50:33;12.85;;;6.53;;
25913;SDS011;13718;50.922;5.346;2022-08-24T04:52:59;8.88;;;6.35;;
25913;SDS011;13718;50.922;5.346;2022-08-24T04:55:25;13.07;;;6.40;;
25913;SDS011;13718;50.922;5.346;2022-08-24T04:57:51;11.13;;;6.80;;
25913;SDS011;13718;50.922;5.346;2022-08-24T05:00:17;11.35;;;6.40;;
25913;SDS011;13718;50.922;5.346;2022-08-24T05:02:42;11.15;;;6.55;;
25913;SDS011;13718;50.922;5.346;2022-08-24T05:05:08;13.77;;;6.95;;
25913;SDS011;13718;50.922;5.346;2022-08-24T05:07:35;12.65;;;6.82;;
25913;SDS011;13718;50.922;5.346;2022-08-24T05:10:02;11.10;;;6.18;;
25913;SDS011;13718;50.922;5.346;2022-08-24T05:12:29;12.15;;;6.20;;
25913;SDS011;13718;50.922;5.346;2022-08-24T05:14:55;14.80;;;6.70;;
25913;SDS011;13718;50.922;5.346;2022-08-24T05:17:21;10.68;;;6.55;;
25913;SDS011;13718;50.922;5.346;2022-08-24T05:19:46;11.38;;;6.45;;
25913;SDS011;13718;50.922;5.346;2022-08-24T05:22:13;18.55;;;7.22;;
25913;SDS011;13718;50.922;5.346;2022-08-24T05:24:38;14.23;;;6.53;;
25913;SDS011;13718;50.922;5.346;2022-08-24T05:27:04;13.63;;;6.70;;
25913;SDS011;13718;50.922;5.346;2022-08-24T05:29:29;11.55;;;6.35;;
25913;SDS011;13718;50.922;5.346;2022-08-24T05:31:58;10.25;;;6.47;;
25913;SDS011;13718;50.922;5.346;2022-08-24T05:34:24;10.30;;;6.28;;
25913;SDS011;13718;50.922;5.346;2022-08-24T05:36:50;11.40;;;6.55;;
25913;SDS011;13718;50.922;5.346;2022-08-24T05:39:16;12.55;;;6.75;;
25913;SDS011;13718;50.922;5.346;2022-08-24T05:41:42;15.43;;;7.03;;
25913;SDS011;13718;50.922;5.346;2022-08-24T05:44:09;13.75;;;6.90;;
25913;SDS011;13718;50.922;5.346;2022-08-24T05:46:36;11.85;;;7.43;;
25913;SDS011;13718;50.922;5.346;2022-08-24T05:49:02;13.15;;;7.22;;
25913;SDS011;13718;50.922;5.346;2022-08-24T05:51:28;15.10;;;7.30;;
25913;SDS011;13718;50.922;5.346;2022-08-24T05:53:54;17.83;;;6.97;;
25913;SDS011;13718;50.922;5.346;2022-08-24T05:56:21;11.48;;;7.32;;
25913;SDS011;13718;50.922;5.346;2022-08-24T05:58:46;11.88;;;7.55;;
25913;SDS011;13718;50.922;5.346;2022-08-24T06:01:20;14.65;;;7.85;;
25913;SDS011;13718;50.922;5.346;2022-08-24T06:03:47;12.35;;;7.43;;
25913;SDS011;13718;50.922;5.346;2022-08-24T06:06:15;17.20;;;8.02;;
25913;SDS011;13718;50.922;5.346;2022-08-24T06:08:43;13.40;;;7.55;;
25913;SDS011;13718;50.922;5.346;2022-08-24T06:11:10;11.15;;;7.43;;
25913;SDS011;13718;50.922;5.346;2022-08-24T06:13:38;11.57;;;6.93;;
25913;SDS011;13718;50.922;5.346;2022-08-24T06:16:11;12.57;;;6.50;;
25913;SDS011;13718;50.922;5.346;2022-08-24T06:18:38;13.25;;;6.97;;
25913;SDS011;13718;50.922;5.346;2022-08-24T06:21:08;13.90;;;7.93;;
25913;SDS011;13718;50.922;5.346;2022-08-24T06:23:35;19.77;;;8.60;;
25913;SDS011;13718;50.922;5.346;2022-08-24T06:26:02;26.77;;;8.40;;
25913;SDS011;13718;50.922;5.346;2022-08-24T06:28:46;18.45;;;8.82;;
25913;SDS011;13718;50.922;5.346;2022-08-24T06:31:12;17.80;;;11.07;;
25913;SDS011;13718;50.922;5.346;2022-08-24T06:33:38;20.48;;;12.63;;
25913;SDS011;13718;50.922;5.346;2022-08-24T06:36:04;25.05;;;13.23;;
25913;SDS011;13718;50.922;5.346;2022-08-24T06:38:30;20.98;;;14.52;;
25913;SDS011;13718;50.922;5.346;2022-08-24T06:40:56;21.27;;;14.02;;
25913;SDS011;13718;50.922;5.346;2022-08-24T06:43:22;25.58;;;16.80;;
25913;SDS011;13718;50.922;5.346;2022-08-24T06:45:48;25.10;;;16.60;;
25913;SDS011;13718;50.922;5.346;2022-08-24T06:48:14;25.10;;;16.13;;
25913;SDS011;13718;50.922;5.346;2022-08-24T06:50:40;25.40;;;16.85;;
25913;SDS011;13718;50.922;5.346;2022-08-24T06:53:06;25.27;;;16.55;;
25913;SDS011;13718;50.922;5.346;2022-08-24T06:55:31;21.50;;;15.65;;
25913;SDS011;13718;50.922;5.346;2022-08-24T06:57:57;25.38;;;15.35;;
25913;SDS011;13718;50.922;5.346;2022-08-24T07:00:23;20.15;;;15.73;;
25913;SDS011;13718;50.922;5.346;2022-08-24T07:02:49;25.52;;;15.27;;
25913;SDS011;13718;50.922;5.346;2022-08-24T07:05:15;19.33;;;15.55;;
25913;SDS011;13718;50.922;5.346;2022-08-24T07:07:41;24.65;;;16.23;;
25913;SDS011;13718;50.922;5.346;2022-08-24T07:10:07;23.48;;;16.10;;
25913;SDS011;13718;50.922;5.346;2022-08-24T07:12:33;22.08;;;16.05;;
25913;SDS011;13718;50.922;5.346;2022-08-24T07:15:00;26.63;;;17.33;;
25913;SDS011;13718;50.922;5.346;2022-08-24T07:17:27;24.17;;;16.42;;
25913;SDS011;13718;50.922;5.346;2022-08-24T07:19:52;23.33;;;15.93;;
25913;SDS011;13718;50.922;5.346;2022-08-24T07:22:19;22.92;;;17.08;;
25913;SDS011;13718;50.922;5.346;2022-08-24T07:24:45;30.92;;;16.58;;
25913;SDS011;13718;50.922;5.346;2022-08-24T07:27:10;22.33;;;15.50;;
25913;SDS011;13718;50.922;5.346;2022-08-24T07:29:37;25.75;;;15.35;;
25913;SDS011;13718;50.922;5.346;2022-08-24T07:32:03;20.88;;;13.52;;
25913;SDS011;13718;50.922;5.346;2022-08-24T07:34:29;27.13;;;14.98;;
25913;SDS011;13718;50.922;5.346;2022-08-24T07:36:55;25.05;;;13.88;;
25913;SDS011;13718;50.922;5.346;2022-08-24T07:39:20;19.85;;;12.25;;
25913;SDS011;13718;50.922;5.346;2022-08-24T07:41:46;21.85;;;12.23;;
25913;SDS011;13718;50.922;5.346;2022-08-24T07:44:12;16.27;;;11.27;;
25913;SDS011;13718;50.922;5.346;2022-08-24T07:46:39;17.60;;;12.20;;
25913;SDS011;13718;50.922;5.346;2022-08-24T07:49:05;12.60;;;9.77;;
25913;SDS011;13718;50.922;5.346;2022-08-24T07:51:32;17.75;;;10.55;;
25913;SDS011;13718;50.922;5.346;2022-08-24T07:53:58;24.20;;;9.95;;
25913;SDS011;13718;50.922;5.346;2022-08-24T07:56:25;16.60;;;9.73;;
25913;SDS011;13718;50.922;5.346;2022-08-24T07:58:53;52.25;;;12.10;;
25913;SDS011;13718;50.922;5.346;2022-08-24T08:01:19;21.73;;;9.32;;
25913;SDS011;13718;50.922;5.346;2022-08-24T08:03:46;26.33;;;10.10;;
25913;SDS011;13718;50.922;5.346;2022-08-24T08:06:12;24.15;;;8.75;;
25913;SDS011;13718;50.922;5.346;2022-08-24T08:08:39;64.93;;;10.98;;
25913;SDS011;13718;50.922;5.346;2022-08-24T08:11:05;159.02;;;17.85;;
25913;SDS011;13718;50.922;5.346;2022-08-24T08:13:32;26.95;;;7.18;;
25913;SDS011;13718;50.922;5.346;2022-08-24T08:15:59;12.70;;;4.60;;
25913;SDS011;13718;50.922;5.346;2022-08-24T08:18:25;6.55;;;4.03;;
25913;SDS011;13718;50.922;5.346;2022-08-24T08:20:51;8.80;;;4.78;;
25913;SDS011;13718;50.922;5.346;2022-08-24T08:23:17;6.53;;;4.78;;
25913;SDS011;13718;50.922;5.346;2022-08-24T08:26:02;7.55;;;3.60;;
25913;SDS011;13718;50.922;5.346;2022-08-24T08:28:29;8.75;;;3.75;;
25913;SDS011;13718;50.922;5.346;2022-08-24T08:30:58;8.52;;;3.50;;
25913;SDS011;13718;50.922;5.346;2022-08-24T08:33:28;12.43;;;3.88;;
25913;SDS011;13718;50.922;5.346;2022-08-24T08:35:55;5.35;;;2.78;;
25913;SDS011;13718;50.922;5.346;2022-08-24T08:38:29;8.05;;;2.85;;
25913;SDS011;13718;50.922;5.346;2022-08-24T08:41:03;9.23;;;2.50;;
25913;SDS011;13718;50.922;5.346;2022-08-24T08:43:44;6.07;;;2.83;;
25913;SDS011;13718;50.922;5.346;2022-08-24T08:46:29;7.25;;;2.80;;
25913;SDS011;13718;50.922;5.346;2022-08-24T08:49:31;9.15;;;3.30;;
25913;SDS011;13718;50.922;5.346;2022-08-24T09:00:13;7.50;;;2.90;;
25913;SDS011;13718;50.922;5.346;2022-08-24T09:05:36;10.20;;;2.78;;
25913;SDS011;13718;50.922;5.346;2022-08-24T09:08:13;11.18;;;3.35;;
25913;SDS011;13718;50.922;5.346;2022-08-24T09:14:09;7.80;;;2.42;;
25913;SDS011;13718;50.922;5.346;2022-08-24T09:20:37;10.90;;;2.40;;
25913;SDS011;13718;50.922;5.346;2022-08-24T09:26:03;9.60;;;2.20;;
25913;SDS011;13718;50.922;5.346;2022-08-24T09:31:26;12.20;;;2.53;;
25913;SDS011;13718;50.922;5.346;2022-08-24T09:34:06;13.02;;;2.20;;
25913;SDS011;13718;50.922;5.346;2022-08-24T09:54:23;5.93;;;1.60;;
25913;SDS011;13718;50.922;5.346;2022-08-24T10:08:21;5.30;;;1.42;;
25913;SDS011;13718;50.922;5.346;2022-08-24T10:13:46;4.32;;;1.73;;
25913;SDS011;13718;50.922;5.346;2022-08-24T10:16:27;4.32;;;1.55;;
25913;SDS011;13718;50.922;5.346;2022-08-24T10:24:38;4.07;;;1.35;;
25913;SDS011;13718;50.922;5.346;2022-08-24T10:32:49;6.00;;;1.25;;
25913;SDS011;13718;50.922;5.346;2022-08-24T10:47:11;3.22;;;1.30;;
25913;SDS011;13718;50.922;5.346;2022-08-24T10:55:24;3.10;;;1.40;;
25913;SDS011;13718;50.922;5.346;2022-08-24T10:58:04;3.90;;;1.10;;
25913;SDS011;13718;50.922;5.346;2022-08-24T11:00:41;4.05;;;1.10;;
25913;SDS011;13718;50.922;5.346;2022-08-24T11:05:49;5.03;;;1.23;;
25913;SDS011;13718;50.922;5.346;2022-08-24T11:08:19;3.60;;;1.20;;
25913;SDS011;13718;50.922;5.346;2022-08-24T11:13:28;5.17;;;1.20;;
25913;SDS011;13718;50.922;5.346;2022-08-24T11:15:55;3.65;;;1.30;;
25913;SDS011;13718;50.922;5.346;2022-08-24T11:18:23;5.53;;;1.30;;
25913;SDS011;13718;50.922;5.346;2022-08-24T11:20:51;3.90;;;1.10;;
25913;SDS011;13718;50.922;5.346;2022-08-24T11:23:27;3.17;;;1.30;;
25913;SDS011;13718;50.922;5.346;2022-08-24T11:28:32;3.53;;;1.10;;
25913;SDS011;13718;50.922;5.346;2022-08-24T11:31:12;3.47;;;1.20;;
25913;SDS011;13718;50.922;5.346;2022-08-24T11:33:49;2.67;;;1.48;;
25913;SDS011;13718;50.922;5.346;2022-08-24T11:36:22;3.63;;;1.10;;
25913;SDS011;13718;50.922;5.346;2022-08-24T11:42:34;8.18;;;1.30;;
25913;SDS011;13718;50.922;5.346;2022-08-24T11:45:14;5.68;;;1.50;;
25913;SDS011;13718;50.922;5.346;2022-08-24T11:48:07;4.38;;;1.30;;
25913;SDS011;13718;50.922;5.346;2022-08-24T11:59:13;5.63;;;1.40;;
25913;SDS011;13718;50.922;5.346;2022-08-24T12:01:50;4.78;;;1.40;;
25913;SDS011;13718;50.922;5.346;2022-08-24T12:04:24;3.78;;;1.30;;
25913;SDS011;13718;50.922;5.346;2022-08-24T12:12:09;5.50;;;1.50;;
25913;SDS011;13718;50.922;5.346;2022-08-24T12:20:20;5.05;;;1.40;;
25913;SDS011;13718;50.922;5.346;2022-08-24T12:22:58;6.35;;;1.52;;
25913;SDS011;13718;50.922;5.346;2022-08-24T12:25:30;4.50;;;1.23;;
25913;SDS011;13718;50.922;5.346;2022-08-24T12:28:19;7.38;;;1.60;;
25913;SDS011;13718;50.922;5.346;2022-08-24T12:30:52;4.47;;;1.70;;
25913;SDS011;13718;50.922;5.346;2022-08-24T12:33:19;5.60;;;1.70;;
25913;SDS011;13718;50.922;5.346;2022-08-24T12:35:52;6.10;;;1.67;;
25913;SDS011;13718;50.922;5.346;2022-08-24T12:38:26;5.63;;;1.77;;
25913;SDS011;13718;50.922;5.346;2022-08-24T12:41:14;4.00;;;1.50;;
25913;SDS011;13718;50.922;5.346;2022-08-24T12:44:01;2.95;;;1.45;;
25913;SDS011;13718;50.922;5.346;2022-08-24T12:46:37;4.78;;;1.77;;
25913;SDS011;13718;50.922;5.346;2022-08-24T12:49:10;4.25;;;1.42;;
25913;SDS011;13718;50.922;5.346;2022-08-24T12:51:54;5.68;;;1.55;;
25913;SDS011;13718;50.922;5.346;2022-08-24T12:57:11;3.60;;;1.50;;
25913;SDS011;13718;50.922;5.346;2022-08-24T13:00:06;8.05;;;1.58;;
25913;SDS011;13718;50.922;5.346;2022-08-24T13:02:38;6.70;;;1.80;;
25913;SDS011;13718;50.922;5.346;2022-08-24T13:05:12;5.43;;;1.77;;
25913;SDS011;13718;50.922;5.346;2022-08-24T13:07:42;6.35;;;1.50;;
25913;SDS011;13718;50.922;5.346;2022-08-24T13:10:11;5.88;;;1.30;;
25913;SDS011;13718;50.922;5.346;2022-08-24T13:17:47;4.65;;;1.75;;
25913;SDS011;13718;50.922;5.346;2022-08-24T13:20:22;8.67;;;1.80;;
25913;SDS011;13718;50.922;5.346;2022-08-24T13:23:17;6.13;;;1.90;;
25913;SDS011;13718;50.922;5.346;2022-08-24T13:33:54;6.90;;;1.67;;
25913;SDS011;13718;50.922;5.346;2022-08-24T13:36:52;6.93;;;1.80;;
25913;SDS011;13718;50.922;5.346;2022-08-24T13:39:50;6.00;;;1.70;;
25913;SDS011;13718;50.922;5.346;2022-08-24T13:50:32;7.07;;;1.75;;
25913;SDS011;13718;50.922;5.346;2022-08-24T13:56:11;5.10;;;1.90;;
25913;SDS011;13718;50.922;5.346;2022-08-24T14:04:11;3.17;;;1.45;;
25913;SDS011;13718;50.922;5.346;2022-08-24T14:34:27;7.93;;;1.75;;
25913;SDS011;13718;50.922;5.346;2022-08-24T14:39:44;6.47;;;1.70;;
25913;SDS011;13718;50.922;5.346;2022-08-24T14:42:38;5.30;;;1.90;;
25913;SDS011;13718;50.922;5.346;2022-08-24T15:07:58;3.33;;;1.70;;
25913;SDS011;13718;50.922;5.346;2022-08-24T15:29:13;4.35;;;1.65;;
25913;SDS011;13718;50.922;5.346;2022-08-24T15:31:57;6.43;;;2.03;;
25913;SDS011;13718;50.922;5.346;2022-08-24T15:37:03;5.43;;;1.63;;
25913;SDS011;13718;50.922;5.346;2022-08-24T15:39:29;6.05;;;1.55;;
25913;SDS011;13718;50.922;5.346;2022-08-24T15:41:56;4.22;;;1.70;;
25913;SDS011;13718;50.922;5.346;2022-08-24T15:44:23;4.00;;;1.60;;
25913;SDS011;13718;50.922;5.346;2022-08-24T15:47:03;4.20;;;1.90;;
25913;SDS011;13718;50.922;5.346;2022-08-24T15:49:49;4.22;;;1.83;;
25913;SDS011;13718;50.922;5.346;2022-08-24T15:52:36;4.18;;;1.75;;
25913;SDS011;13718;50.922;5.346;2022-08-24T15:55:06;4.07;;;1.48;;
25913;SDS011;13718;50.922;5.346;2022-08-24T15:57:40;3.95;;;1.60;;
25913;SDS011;13718;50.922;5.346;2022-08-24T16:00:12;4.35;;;1.55;;
25913;SDS011;13718;50.922;5.346;2022-08-24T16:05:51;9.43;;;1.45;;
25913;SDS011;13718;50.922;5.346;2022-08-24T16:08:21;6.38;;;1.88;;
25913;SDS011;13718;50.922;5.346;2022-08-24T16:10:52;7.38;;;1.95;;
25913;SDS011;13718;50.922;5.346;2022-08-24T16:13:24;3.58;;;1.60;;
25913;SDS011;13718;50.922;5.346;2022-08-24T16:16:06;5.40;;;1.50;;
25913;SDS011;13718;50.922;5.346;2022-08-24T16:18:47;6.72;;;2.15;;
25913;SDS011;13718;50.922;5.346;2022-08-24T16:32:09;3.28;;;1.60;;
25913;SDS011;13718;50.922;5.346;2022-08-24T16:34:47;6.13;;;1.80;;
25913;SDS011;13718;50.922;5.346;2022-08-24T16:37:16;5.68;;;1.88;;
25913;SDS011;13718;50.922;5.346;2022-08-24T16:39:43;4.28;;;1.60;;
25913;SDS011;13718;50.922;5.346;2022-08-24T16:42:10;5.90;;;2.08;;
25913;SDS011;13718;50.922;5.346;2022-08-24T16:47:07;4.35;;;1.80;;
25913;SDS011;13718;50.922;5.346;2022-08-24T16:49:34;5.93;;;1.95;;
25913;SDS011;13718;50.922;5.346;2022-08-24T16:52:01;5.38;;;1.80;;
25913;SDS011;13718;50.922;5.346;2022-08-24T16:54:27;7.10;;;1.90;;
25913;SDS011;13718;50.922;5.346;2022-08-24T16:56:56;4.63;;;1.88;;
25913;SDS011;13718;50.922;5.346;2022-08-24T16:59:27;8.85;;;2.72;;
25913;SDS011;13718;50.922;5.346;2022-08-24T17:01:55;6.53;;;1.90;;
25913;SDS011;13718;50.922;5.346;2022-08-24T17:04:21;7.47;;;2.20;;
25913;SDS011;13718;50.922;5.346;2022-08-24T17:06:47;15.27;;;2.47;;
25913;SDS011;13718;50.922;5.346;2022-08-24T17:09:16;4.45;;;2.10;;
25913;SDS011;13718;50.922;5.346;2022-08-24T17:11:42;4.65;;;2.17;;
25913;SDS011;13718;50.922;5.346;2022-08-24T17:14:08;5.85;;;1.75;;
25913;SDS011;13718;50.922;5.346;2022-08-24T17:16:34;4.43;;;1.77;;
25913;SDS011;13718;50.922;5.346;2022-08-24T17:19:02;6.53;;;2.00;;
25913;SDS011;13718;50.922;5.346;2022-08-24T17:21:37;5.43;;;2.28;;
25913;SDS011;13718;50.922;5.346;2022-08-24T17:24:04;6.05;;;2.10;;
25913;SDS011;13718;50.922;5.346;2022-08-24T17:26:31;5.68;;;1.70;;
25913;SDS011;13718;50.922;5.346;2022-08-24T17:28:57;6.30;;;2.22;;
25913;SDS011;13718;50.922;5.346;2022-08-24T17:31:24;4.53;;;2.00;;
25913;SDS011;13718;50.922;5.346;2022-08-24T17:33:50;4.03;;;1.90;;
25913;SDS011;13718;50.922;5.346;2022-08-24T17:36:17;7.72;;;2.38;;
25913;SDS011;13718;50.922;5.346;2022-08-24T17:38:46;6.13;;;2.72;;
25913;SDS011;13718;50.922;5.346;2022-08-24T17:41:14;4.47;;;2.30;;
25913;SDS011;13718;50.922;5.346;2022-08-24T17:43:40;8.15;;;2.20;;
25913;SDS011;13718;50.922;5.346;2022-08-24T17:46:07;5.95;;;2.58;;
25913;SDS011;13718;50.922;5.346;2022-08-24T17:48:35;6.38;;;2.25;;
25913;SDS011;13718;50.922;5.346;2022-08-24T17:51:01;5.93;;;2.20;;
25913;SDS011;13718;50.922;5.346;2022-08-24T17:53:26;7.00;;;2.97;;
25913;SDS011;13718;50.922;5.346;2022-08-24T17:55:52;7.75;;;1.92;;
25913;SDS011;13718;50.922;5.346;2022-08-24T17:58:18;5.95;;;2.40;;
25913;SDS011;13718;50.922;5.346;2022-08-24T18:00:43;5.50;;;2.75;;
25913;SDS011;13718;50.922;5.346;2022-08-24T18:03:09;11.20;;;2.63;;
25913;SDS011;13718;50.922;5.346;2022-08-24T18:05:35;7.40;;;2.20;;
25913;SDS011;13718;50.922;5.346;2022-08-24T18:08:01;5.45;;;1.83;;
25913;SDS011;13718;50.922;5.346;2022-08-24T18:10:28;6.05;;;2.53;;
25913;SDS011;13718;50.922;5.346;2022-08-24T18:12:55;6.78;;;1.95;;
25913;SDS011;13718;50.922;5.346;2022-08-24T18:15:22;6.25;;;2.20;;
25913;SDS011;13718;50.922;5.346;2022-08-24T18:17:49;9.07;;;2.40;;
25913;SDS011;13718;50.922;5.346;2022-08-24T18:20:17;7.85;;;2.28;;
25913;SDS011;13718;50.922;5.346;2022-08-24T18:22:46;6.20;;;2.17;;
25913;SDS011;13718;50.922;5.346;2022-08-24T18:25:15;7.80;;;2.65;;
25913;SDS011;13718;50.922;5.346;2022-08-24T18:27:43;7.10;;;1.90;;
25913;SDS011;13718;50.922;5.346;2022-08-24T18:30:18;6.20;;;2.10;;
25913;SDS011;13718;50.922;5.346;2022-08-24T18:32:48;5.28;;;1.92;;
25913;SDS011;13718;50.922;5.346;2022-08-24T18:35:14;5.72;;;2.35;;
25913;SDS011;13718;50.922;5.346;2022-08-24T18:37:40;13.65;;;2.42;;
25913;SDS011;13718;50.922;5.346;2022-08-24T18:40:06;6.80;;;2.08;;
25913;SDS011;13718;50.922;5.346;2022-08-24T18:42:32;3.75;;;1.95;;
25913;SDS011;13718;50.922;5.346;2022-08-24T18:44:59;9.20;;;2.20;;
25913;SDS011;13718;50.922;5.346;2022-08-24T18:47:26;6.28;;;2.10;;
25913;SDS011;13718;50.922;5.346;2022-08-24T18:49:51;9.40;;;2.10;;
25913;SDS011;13718;50.922;5.346;2022-08-24T18:52:17;5.50;;;1.90;;
25913;SDS011;13718;50.922;5.346;2022-08-24T18:54:43;6.10;;;1.73;;